createdAt,value
2022-08-04T00:00:57.297Z,1.45
2022-08-04T00:03:23.166Z,1.48
2022-08-04T00:06:01.421Z,1.33
2022-08-04T00:08:28.213Z,1.30
2022-08-04T00:10:32.797Z,1.38
2022-08-04T00:12:41.535Z,1.27
2022-08-04T00:14:51.206Z,1.30
2022-08-04T00:16:55.704Z,1.58
2022-08-04T00:19:05.357Z,1.40
2022-08-04T00:21:15.106Z,1.90
2022-08-04T00:23:19.743Z,2.30
2022-08-04T00:25:26.569Z,2.45
2022-08-04T00:27:33.263Z,1.90
2022-08-04T00:29:40.960Z,1.77
2022-08-04T00:31:54.882Z,2.30
2022-08-04T00:34:03.576Z,1.80
2022-08-04T00:36:07.947Z,1.70
2022-08-04T00:38:12.533Z,1.85
2022-08-04T00:40:41.733Z,1.63
2022-08-04T00:42:59.159Z,1.52
2022-08-04T00:45:31.175Z,1.52
2022-08-04T00:48:16.446Z,1.20
2022-08-04T00:50:41.966Z,1.10
2022-08-04T00:53:18.318Z,1.50
2022-08-04T00:55:56.673Z,1.30
2022-08-04T00:58:25.617Z,1.17
2022-08-04T01:00:34.629Z,1.10
2022-08-04T01:03:02.978Z,1.30
2022-08-04T01:05:29.677Z,1.40
2022-08-04T01:08:08.943Z,1.30
2022-08-04T01:10:31.782Z,1.30
2022-08-04T01:13:15.018Z,0.90
2022-08-04T01:15:57.125Z,1.30
2022-08-04T01:18:10.183Z,0.93
2022-08-04T01:20:18.847Z,1.10
2022-08-04T01:23:02.854Z,0.85
2022-08-04T01:25:39.289Z,0.90
2022-08-04T01:28:19.227Z,1.10
2022-08-04T01:30:24.082Z,0.95
2022-08-04T01:32:42.181Z,0.90
2022-08-04T01:35:05.981Z,1.10
2022-08-04T01:37:28.956Z,1.17
2022-08-04T01:39:43.413Z,1.48
2022-08-04T01:41:51.985Z,1.00
2022-08-04T01:44:05.123Z,0.80
2022-08-04T01:46:11.530Z,0.82
2022-08-04T01:48:20.162Z,1.10
2022-08-04T01:50:29.119Z,0.90
2022-08-04T01:52:33.882Z,0.65
2022-08-04T01:54:42.579Z,0.90
2022-08-04T01:56:49.122Z,1.00
2022-08-04T01:58:53.688Z,0.60
2022-08-04T02:01:12.218Z,0.85
2022-08-04T02:03:18.653Z,0.90
2022-08-04T02:05:27.062Z,0.80
2022-08-04T02:08:17.340Z,0.65
2022-08-04T02:10:44.788Z,0.77
2022-08-04T02:13:10.889Z,0.88
2022-08-04T02:15:47.022Z,0.77
2022-08-04T02:20:24.423Z,0.82
2022-08-04T02:22:33.382Z,0.70
2022-08-04T02:24:52.033Z,8.48
2022-08-04T02:26:58.832Z,4.93
2022-08-04T02:29:20.890Z,1.77
2022-08-04T02:31:48.881Z,1.10
2022-08-04T02:34:08.943Z,1.00
2022-08-04T02:36:35.748Z,1.15
2022-08-04T02:39:03.629Z,2.50
2022-08-04T02:41:09.087Z,3.15
2022-08-04T02:43:18.155Z,2.85
2022-08-04T02:45:44.755Z,2.53
2022-08-04T02:48:29.159Z,1.80
2022-08-04T02:50:28.186Z,1.35
2022-08-04T02:52:33.420Z,1.40
2022-08-04T02:54:41.286Z,0.88
2022-08-04T02:56:50.373Z,1.10
2022-08-04T02:59:03.855Z,0.95
2022-08-04T03:01:08.597Z,0.80
2022-08-04T03:03:29.014Z,0.90
2022-08-04T03:06:00.723Z,0.75
2022-08-04T03:08:40.481Z,0.90
2022-08-04T03:11:16.751Z,0.52
2022-08-04T03:13:44.137Z,0.90
2022-08-04T03:16:14.014Z,0.80
2022-08-04T03:18:43.424Z,0.80
2022-08-04T03:21:15.802Z,0.85
2022-08-04T03:23:44.772Z,0.75
2022-08-04T03:26:09.377Z,0.80
2022-08-04T03:28:46.916Z,0.70
2022-08-04T03:31:07.391Z,0.65
2022-08-04T03:33:36.763Z,0.98
2022-08-04T03:36:16.323Z,0.77
2022-08-04T03:38:55.002Z,0.52
2022-08-04T03:41:51.586Z,0.80
2022-08-04T03:44:25.881Z,0.63
2022-08-04T03:46:56.935Z,1.20
2022-08-04T03:49:33.646Z,0.95
2022-08-04T03:52:24.201Z,0.90
2022-08-04T03:55:07.905Z,1.00
2022-08-04T03:57:46.971Z,0.68
2022-08-04T04:00:26.869Z,0.40
2022-08-04T04:03:06.050Z,0.50
2022-08-04T04:05:41.003Z,0.75
2022-08-04T04:08:35.938Z,1.05
2022-08-04T04:11:13.765Z,0.70
2022-08-04T04:13:35.749Z,0.77
2022-08-04T04:16:21.724Z,0.65
2022-08-04T04:18:53.513Z,0.80
2022-08-04T04:21:11.686Z,0.70
2022-08-04T04:23:48.020Z,0.52
2022-08-04T04:26:17.194Z,0.70
2022-08-04T04:28:47.161Z,0.70
2022-08-04T04:31:23.355Z,0.50
2022-08-04T04:33:53.131Z,0.70
2022-08-04T04:36:20.983Z,0.55
2022-08-04T04:38:35.686Z,0.60
2022-08-04T04:41:11.931Z,0.70
2022-08-04T04:43:56.010Z,0.60
2022-08-04T04:48:48.132Z,0.60
2022-08-04T04:51:10.246Z,0.50
2022-08-04T04:53:31.277Z,0.57
2022-08-04T04:55:45.027Z,0.60
2022-08-04T04:57:56.527Z,0.52
2022-08-04T05:00:03.790Z,1.00
2022-08-04T05:02:34.239Z,0.50
2022-08-04T05:05:12.987Z,0.70
2022-08-04T05:07:59.442Z,0.60
2022-08-04T05:10:50.879Z,0.63
2022-08-04T05:14:37.360Z,0.60
2022-08-04T05:15:56.477Z,0.70
2022-08-04T05:18:00.957Z,0.60
2022-08-04T05:20:35.588Z,0.40
2022-08-04T05:23:03.537Z,0.47
2022-08-04T05:25:22.461Z,0.57
2022-08-04T05:27:39.822Z,0.63
2022-08-04T05:29:54.125Z,0.73
2022-08-04T05:31:59.821Z,2.20
2022-08-04T05:34:15.791Z,2.92
2022-08-04T05:36:39.927Z,1.70
2022-08-04T05:38:45.199Z,1.08
2022-08-04T05:40:50.774Z,0.70
2022-08-04T05:42:59.629Z,0.63
2022-08-04T05:45:04.648Z,0.75
2022-08-04T05:47:09.123Z,0.50
2022-08-04T05:49:21.215Z,0.68
2022-08-04T05:51:26.593Z,0.80
2022-08-04T05:53:31.925Z,1.00
2022-08-04T05:55:57.091Z,0.80
2022-08-04T05:58:03.953Z,0.73
2022-08-04T06:00:31.834Z,1.27
2022-08-04T06:02:34.871Z,0.80
2022-08-04T06:04:41.730Z,0.73
2022-08-04T06:06:46.573Z,0.60
2022-08-04T06:08:55.942Z,0.70
2022-08-04T06:11:03.519Z,0.60
2022-08-04T06:13:49.286Z,0.55
2022-08-04T06:15:46.095Z,0.80
2022-08-04T06:18:35.417Z,0.63
2022-08-04T06:20:22.940Z,0.80
2022-08-04T06:22:31.573Z,0.70
2022-08-04T06:24:37.450Z,0.60
2022-08-04T06:26:41.988Z,0.82
2022-08-04T06:28:53.721Z,0.60
2022-08-04T06:32:28.011Z,0.50
2022-08-04T06:33:54.501Z,0.40
2022-08-04T06:36:05.296Z,0.60
2022-08-04T06:38:10.581Z,0.50
2022-08-04T06:40:30.439Z,0.80
2022-08-04T06:42:41.916Z,0.57
2022-08-04T06:44:48.006Z,0.60
2022-08-04T06:46:52.837Z,0.50
2022-08-04T06:49:01.076Z,1.25
2022-08-04T06:51:28.656Z,0.40
2022-08-04T06:53:33.411Z,0.40
2022-08-04T06:55:42.080Z,0.40
2022-08-04T06:57:47.524Z,0.50
2022-08-04T07:00:12.078Z,0.50
2022-08-04T07:02:19.946Z,0.50
2022-08-04T07:04:24.703Z,0.60
2022-08-04T07:06:29.107Z,0.68
2022-08-04T07:08:38.314Z,0.40
2022-08-04T07:10:43.305Z,0.45
2022-08-04T07:12:47.785Z,0.63
2022-08-04T07:14:55.835Z,0.55
2022-08-04T07:17:00.261Z,0.40
2022-08-04T07:19:10.289Z,0.47
2022-08-04T07:21:25.696Z,0.50
2022-08-04T07:23:30.083Z,0.43
2022-08-04T07:25:59.935Z,0.68
2022-08-04T07:28:04.696Z,0.75
2022-08-04T07:30:09.652Z,0.55
2022-08-04T07:32:14.834Z,0.60
2022-08-04T07:34:22.356Z,0.60
2022-08-04T07:36:30.144Z,0.50
2022-08-04T07:38:37.858Z,0.57
2022-08-04T07:40:55.879Z,0.40
2022-08-04T07:43:00.358Z,0.40
2022-08-04T07:45:05.807Z,0.50
2022-08-04T07:47:22.254Z,0.60
2022-08-04T07:49:55.491Z,0.50
2022-08-04T07:51:55.215Z,0.60
2022-08-04T07:54:04.048Z,0.50
2022-08-04T07:56:09.121Z,0.57
2022-08-04T07:58:13.726Z,0.80
2022-08-04T08:00:22.387Z,0.70
2022-08-04T08:02:27.060Z,0.65
2022-08-04T08:04:31.609Z,0.50
2022-08-04T08:06:43.079Z,0.60
2022-08-04T08:08:47.968Z,0.40
2022-08-04T08:10:52.832Z,0.40
2022-08-04T08:13:01.773Z,0.50
2022-08-04T08:15:15.921Z,0.60
2022-08-04T08:17:20.904Z,0.70
2022-08-04T08:19:29.427Z,0.75
2022-08-04T08:21:33.875Z,0.50
2022-08-04T08:23:38.963Z,0.50
2022-08-04T08:25:47.424Z,0.60
2022-08-04T08:27:56.031Z,0.70
2022-08-04T08:30:01.187Z,0.52
2022-08-04T08:32:10.109Z,0.40
2022-08-04T08:34:14.588Z,0.40
2022-08-04T08:37:14.123Z,0.52
2022-08-04T08:39:24.739Z,0.30
2022-08-04T08:41:53.412Z,0.50
2022-08-04T08:44:36.306Z,0.40
2022-08-04T08:47:03.731Z,0.40
2022-08-04T08:50:02.765Z,0.45
2022-08-04T08:53:01.470Z,0.47
2022-08-04T08:55:30.584Z,0.55
2022-08-04T08:57:43.986Z,0.35
2022-08-04T09:00:31.964Z,0.50
2022-08-04T09:03:03.921Z,0.95
2022-08-04T09:05:34.212Z,0.47
2022-08-04T09:08:08.690Z,0.40
2022-08-04T09:10:33.403Z,0.40
2022-08-04T09:12:59.354Z,0.98
2022-08-04T09:15:21.935Z,0.47
2022-08-04T09:17:39.012Z,0.40
2022-08-04T09:20:08.067Z,0.40
2022-08-04T09:22:36.339Z,0.50
2022-08-04T09:25:09.098Z,0.52
2022-08-04T09:27:29.696Z,2.17
2022-08-04T09:29:56.011Z,0.88
2022-08-04T09:32:25.754Z,0.82
2022-08-04T09:35:14.936Z,0.85
2022-08-04T09:37:45.584Z,0.63
2022-08-04T09:40:07.140Z,0.60
2022-08-04T09:42:45.720Z,0.45
2022-08-04T09:45:06.311Z,0.50
2022-08-04T09:47:39.112Z,0.65
2022-08-04T09:50:18.507Z,0.30
2022-08-04T09:52:49.779Z,0.40
2022-08-04T09:55:04.266Z,0.75
2022-08-04T09:57:27.911Z,0.60
2022-08-04T10:00:03.028Z,0.50
2022-08-04T10:02:18.459Z,0.55
2022-08-04T10:04:25.517Z,0.60
2022-08-04T10:07:03.573Z,0.70
2022-08-04T10:09:49.292Z,0.47
2022-08-04T10:12:19.001Z,0.40
2022-08-04T10:14:56.137Z,0.60
2022-08-04T10:17:16.614Z,0.52
2022-08-04T10:19:33.024Z,0.43
2022-08-04T10:21:59.959Z,0.50
2022-08-04T10:25:00.813Z,1.10
2022-08-04T10:27:21.284Z,0.73
2022-08-04T10:29:39.932Z,0.50
2022-08-04T10:32:01.252Z,0.80
2022-08-04T10:34:15.972Z,1.13
2022-08-04T10:36:22.920Z,0.90
2022-08-04T10:38:59.574Z,0.80
2022-08-04T10:41:08.328Z,1.50
2022-08-04T10:43:25.768Z,1.52
2022-08-04T10:45:58.089Z,1.60
2022-08-04T10:48:35.861Z,1.70
2022-08-04T10:50:41.706Z,1.90
2022-08-04T10:53:14.780Z,1.85
2022-08-04T10:56:07.879Z,1.20
2022-08-04T10:57:54.188Z,1.10
2022-08-04T11:00:10.206Z,1.10
2022-08-04T11:02:46.853Z,1.27
2022-08-04T11:05:03.146Z,1.30
2022-08-04T11:07:07.621Z,1.05
2022-08-04T11:09:15.163Z,0.93
2022-08-04T11:11:57.099Z,0.90
2022-08-04T11:14:10.532Z,1.13
2022-08-04T11:16:35.018Z,1.02
2022-08-04T11:19:11.308Z,0.80
2022-08-04T11:21:23.451Z,3.58
2022-08-04T11:23:35.041Z,2.53
2022-08-04T11:26:02.879Z,3.22
2022-08-04T11:28:32.626Z,2.47
2022-08-04T11:31:00.254Z,2.10
2022-08-04T11:33:44.246Z,12.30
2022-08-04T11:36:10.353Z,6.75
2022-08-04T11:38:53.643Z,2.63
2022-08-04T11:41:05.561Z,1.30
2022-08-04T11:44:00.692Z,1.10
2022-08-04T11:45:53.425Z,0.98
2022-08-04T11:48:01.972Z,1.25
2022-08-04T11:50:39.524Z,0.95
2022-08-04T11:52:45.072Z,1.00
2022-08-04T11:54:54.781Z,1.13
2022-08-04T11:57:01.546Z,1.00
2022-08-04T11:59:06.902Z,0.90
2022-08-04T12:01:46.332Z,1.00
2022-08-04T12:04:23.903Z,1.40
2022-08-04T12:06:50.420Z,1.40
2022-08-04T12:09:29.542Z,1.55
2022-08-04T12:12:02.727Z,1.30
2022-08-04T12:14:41.838Z,1.08
2022-08-04T12:16:54.101Z,1.35
2022-08-04T12:19:00.111Z,1.85
2022-08-04T12:21:15.035Z,1.70
2022-08-04T12:23:35.707Z,1.88
2022-08-04T12:25:44.847Z,1.88
2022-08-04T12:28:05.996Z,1.70
2022-08-04T12:31:01.238Z,1.80
2022-08-04T12:32:48.116Z,1.75
2022-08-04T12:35:17.872Z,1.60
2022-08-04T12:37:41.278Z,1.52
2022-08-04T12:47:28.222Z,2.10
2022-08-04T12:49:31.136Z,1.83
2022-08-04T12:56:43.232Z,1.83
2022-08-04T12:58:55.056Z,2.08
2022-08-04T13:02:09.543Z,1.88
2022-08-04T13:04:09.068Z,2.47
2022-08-04T13:08:33.154Z,2.17
2022-08-04T13:10:48.700Z,2.63
2022-08-04T13:12:58.281Z,2.65
2022-08-04T13:15:18.127Z,2.28
2022-08-04T13:17:28.117Z,2.35
2022-08-04T13:19:41.788Z,2.22
2022-08-04T13:21:49.976Z,2.20
2022-08-04T13:24:21.885Z,2.45
2022-08-04T13:26:42.976Z,2.42
2022-08-04T13:28:53.784Z,2.50
2022-08-04T13:31:03.390Z,2.60
2022-08-04T13:33:10.838Z,2.38
2022-08-04T13:35:15.948Z,2.60
2022-08-04T13:37:25.449Z,2.75
2022-08-04T13:39:32.725Z,2.60
2022-08-04T13:41:42.574Z,2.95
2022-08-04T13:44:18.444Z,3.78
2022-08-04T13:46:30.103Z,4.25
2022-08-04T13:48:39.778Z,3.60
2022-08-04T13:50:49.697Z,3.70
2022-08-04T13:52:59.145Z,3.53
2022-08-04T13:55:03.965Z,3.38
2022-08-04T13:57:31.104Z,3.55
2022-08-04T13:59:37.944Z,3.17
2022-08-04T14:01:48.677Z,3.05
2022-08-04T14:04:21.121Z,3.28
2022-08-04T14:06:31.917Z,2.67
2022-08-04T14:08:37.910Z,3.08
2022-08-04T14:10:42.489Z,3.00
2022-08-04T14:12:50.117Z,2.83
2022-08-04T14:14:55.576Z,2.80
2022-08-04T14:17:16.386Z,3.05
2022-08-04T14:19:31.057Z,2.63
2022-08-04T14:21:40.749Z,2.95
2022-08-04T14:24:01.045Z,3.05
2022-08-04T14:26:36.660Z,2.85
2022-08-04T14:29:25.068Z,2.63
2022-08-04T14:31:30.397Z,2.53
2022-08-04T14:34:02.569Z,2.70
2022-08-04T14:36:04.898Z,4.07
2022-08-04T14:38:12.625Z,3.70
2022-08-04T14:40:35.498Z,2.83
2022-08-04T14:42:54.552Z,2.67
2022-08-04T14:45:05.270Z,2.72
2022-08-04T14:47:13.316Z,2.90
2022-08-04T14:49:18.406Z,2.72
2022-08-04T14:51:36.616Z,2.90
2022-08-04T14:53:41.797Z,3.17
2022-08-04T14:55:57.931Z,3.28
2022-08-04T14:58:35.315Z,3.95
2022-08-04T15:00:35.817Z,3.53
2022-08-04T15:02:40.954Z,3.95
2022-08-04T15:04:47.873Z,3.13
2022-08-04T15:06:53.305Z,3.10
2022-08-04T15:08:59.563Z,3.17
2022-08-04T15:11:08.026Z,2.78
2022-08-04T15:13:14.617Z,2.50
2022-08-04T15:15:35.958Z,2.30
2022-08-04T15:17:45.585Z,2.20
2022-08-04T15:19:55.718Z,1.77
2022-08-04T15:22:00.548Z,1.60
2022-08-04T15:24:09.209Z,2.17
2022-08-04T15:26:15.249Z,1.27
2022-08-04T15:28:21.364Z,1.30
2022-08-04T15:30:32.848Z,1.38
2022-08-04T15:32:44.889Z,0.90
2022-08-04T15:34:50.637Z,0.80
2022-08-04T15:36:59.886Z,1.27
2022-08-04T15:39:43.582Z,0.77
2022-08-04T15:44:46.393Z,0.80
2022-08-04T15:47:16.491Z,0.93
2022-08-04T15:49:26.862Z,1.60
2022-08-04T15:51:32.891Z,1.02
2022-08-04T15:54:23.459Z,1.00
2022-08-04T15:57:01.501Z,1.00
2022-08-04T15:59:09.615Z,0.77
2022-08-04T16:01:20.077Z,0.75
2022-08-04T16:03:58.366Z,0.98
2022-08-04T16:06:47.421Z,0.95
2022-08-04T16:09:01.129Z,1.20
2022-08-04T16:11:06.051Z,1.20
2022-08-04T16:13:17.992Z,1.20
2022-08-04T16:15:38.295Z,0.90
2022-08-04T16:17:43.582Z,1.10
2022-08-04T16:20:10.989Z,1.30
2022-08-04T16:22:29.601Z,1.60
2022-08-04T16:24:38.769Z,1.30
2022-08-04T16:26:54.990Z,1.42
2022-08-04T16:29:03.235Z,1.23
2022-08-04T16:31:08.981Z,1.15
2022-08-04T16:33:15.105Z,1.10
2022-08-04T16:35:29.497Z,1.10
2022-08-04T16:37:40.785Z,1.10
2022-08-04T16:39:50.994Z,1.10
2022-08-04T16:41:56.233Z,1.33
2022-08-04T16:44:52.598Z,1.23
2022-08-04T16:47:21.687Z,1.58
2022-08-04T16:49:23.003Z,1.55
2022-08-04T16:51:32.879Z,2.20
2022-08-04T16:53:52.971Z,1.90
2022-08-04T16:56:02.674Z,1.60
2022-08-04T16:58:07.580Z,1.70
2022-08-04T17:00:18.093Z,1.15
2022-08-04T17:02:26.958Z,1.10
2022-08-04T17:04:32.403Z,1.10
2022-08-04T17:06:42.957Z,1.30
2022-08-04T17:08:47.808Z,1.13
2022-08-04T17:10:52.595Z,1.10
2022-08-04T17:13:28.046Z,1.00
2022-08-04T17:15:26.354Z,1.20
2022-08-04T17:18:03.803Z,0.90
2022-08-04T17:19:59.406Z,0.93
2022-08-04T17:22:10.664Z,1.00
2022-08-04T17:24:17.851Z,1.05
2022-08-04T17:26:39.907Z,1.17
2022-08-04T17:28:56.391Z,1.10
2022-08-04T17:31:03.179Z,1.60
2022-08-04T17:33:14.997Z,0.98
2022-08-04T17:35:20.113Z,1.17
2022-08-04T17:37:52.122Z,0.85
2022-08-04T17:39:56.991Z,0.95
2022-08-04T17:42:01.615Z,1.00
2022-08-04T17:44:11.979Z,1.20
2022-08-04T17:46:48.801Z,1.20
2022-08-04T17:49:05.449Z,1.30
2022-08-04T17:51:21.638Z,1.23
2022-08-04T17:54:02.648Z,1.20
2022-08-04T17:56:08.223Z,1.48
2022-08-04T17:58:21.681Z,1.00
2022-08-04T18:00:33.477Z,1.00
2022-08-04T18:02:39.964Z,0.98
2022-08-04T18:05:06.907Z,1.33
2022-08-04T18:08:35.124Z,1.30
2022-08-04T18:10:27.687Z,1.13
2022-08-04T18:12:33.304Z,1.00
2022-08-04T18:14:52.432Z,1.20
2022-08-04T18:18:19.666Z,1.10
2022-08-04T18:19:33.100Z,1.23
2022-08-04T18:24:35.005Z,1.30
2022-08-04T18:26:56.843Z,1.17
2022-08-04T18:29:04.859Z,1.23
2022-08-04T18:31:11.803Z,1.00
2022-08-04T18:33:41.286Z,1.05
2022-08-04T18:36:37.014Z,0.90
2022-08-04T18:38:22.867Z,1.10
2022-08-04T18:40:39.016Z,1.20
2022-08-04T18:42:55.355Z,1.35
2022-08-04T18:45:03.344Z,1.20
2022-08-04T18:47:22.469Z,1.00
2022-08-04T18:51:56.017Z,1.30
2022-08-04T18:54:02.954Z,1.08
2022-08-04T18:58:34.659Z,1.45
2022-08-04T19:00:45.523Z,1.40
2022-08-04T19:02:51.204Z,2.78
2022-08-04T19:04:57.674Z,4.97
2022-08-04T19:07:29.207Z,3.20
2022-08-04T19:09:51.040Z,6.68
2022-08-04T19:11:56.086Z,3.05
2022-08-04T19:14:03.984Z,2.80
2022-08-04T19:16:16.640Z,2.53
2022-08-04T19:18:23.625Z,1.80
2022-08-04T19:20:31.391Z,2.40
2022-08-04T19:24:11.474Z,1.85
2022-08-04T19:25:02.391Z,0.82
2022-08-04T19:27:10.452Z,1.55
2022-08-04T19:29:16.001Z,1.20
2022-08-04T19:31:34.112Z,1.60
2022-08-04T19:33:59.354Z,1.27
2022-08-04T19:36:09.900Z,0.80
2022-08-04T19:38:18.564Z,0.75
2022-08-04T19:40:33.766Z,0.80
2022-08-04T19:42:40.476Z,0.77
2022-08-04T19:44:46.838Z,0.80
2022-08-04T19:46:55.421Z,0.90
2022-08-04T19:49:05.042Z,0.70
2022-08-04T19:51:11.610Z,1.17
2022-08-04T19:53:36.987Z,0.82
2022-08-04T19:55:42.106Z,0.80
2022-08-04T19:57:56.319Z,1.30
2022-08-04T20:00:02.903Z,1.25
2022-08-04T20:02:09.366Z,1.20
2022-08-04T20:04:20.831Z,0.70
2022-08-04T20:06:29.351Z,0.70
2022-08-04T20:08:34.713Z,0.93
2022-08-04T20:10:51.149Z,0.80
2022-08-04T20:12:59.956Z,0.95
2022-08-04T20:15:04.727Z,0.75
2022-08-04T20:17:11.745Z,0.90
2022-08-04T20:19:18.204Z,1.30
2022-08-04T20:21:24.418Z,0.82
2022-08-04T20:23:50.132Z,1.00
2022-08-04T20:25:56.710Z,1.08
2022-08-04T20:28:01.357Z,1.33
2022-08-04T20:30:16.361Z,0.70
2022-08-04T20:32:28.819Z,0.70
2022-08-04T20:34:33.537Z,0.80
2022-08-04T20:36:50.027Z,1.00
2022-08-04T20:38:57.662Z,0.60
2022-08-04T20:41:02.989Z,0.75
2022-08-04T20:43:09.741Z,0.70
2022-08-04T20:47:41.371Z,0.60
2022-08-04T20:49:47.784Z,0.88
2022-08-04T20:51:54.456Z,0.90
2022-08-04T20:53:58.847Z,1.10
2022-08-04T20:56:03.313Z,0.98
2022-08-04T20:58:13.209Z,1.05
2022-08-04T21:00:26.440Z,1.17
2022-08-04T21:02:38.524Z,1.05
2022-08-04T21:04:48.665Z,1.33
2022-08-04T21:06:53.365Z,1.30
2022-08-04T21:08:59.995Z,1.15
2022-08-04T21:11:16.280Z,1.10
2022-08-04T21:13:25.354Z,1.90
2022-08-04T21:15:58.222Z,1.63
2022-08-04T21:18:06.580Z,1.52
2022-08-04T21:20:12.884Z,1.65
2022-08-04T21:22:29.872Z,1.58
2022-08-04T21:24:40.003Z,1.27
2022-08-04T21:26:46.560Z,1.58
2022-08-04T21:28:53.920Z,1.15
2022-08-04T21:31:11.089Z,1.02
2022-08-04T21:33:50.295Z,1.50
2022-08-04T21:35:54.603Z,1.50
2022-08-04T21:38:01.508Z,1.30
2022-08-04T21:40:14.228Z,1.40
2022-08-04T21:44:32.936Z,1.25
2022-08-04T21:46:44.318Z,1.60
2022-08-04T21:48:51.066Z,1.42
2022-08-04T21:50:56.155Z,1.70
2022-08-04T21:53:01.719Z,1.90
2022-08-04T21:55:08.628Z,3.75
2022-08-04T21:57:15.368Z,3.20
2022-08-04T21:59:23.737Z,2.33
2022-08-04T22:04:05.032Z,2.35
2022-08-04T22:06:10.574Z,2.30
2022-08-04T22:08:23.796Z,2.10
2022-08-04T22:10:34.799Z,1.73
2022-08-04T22:12:39.089Z,2.30
2022-08-04T22:14:57.737Z,1.90
2022-08-04T22:17:06.030Z,2.50
2022-08-04T22:19:10.849Z,2.50
2022-08-04T22:21:17.326Z,3.00
2022-08-04T22:23:30.440Z,2.95
2022-08-04T22:25:53.677Z,2.67
2022-08-04T22:28:04.488Z,2.50
2022-08-04T22:30:17.311Z,2.80
2022-08-04T22:32:22.340Z,2.30
2022-08-04T22:34:30.522Z,2.53
2022-08-04T22:36:37.110Z,2.20
2022-08-04T22:38:48.594Z,1.98
2022-08-04T22:41:03.692Z,1.80
2022-08-04T22:43:31.997Z,1.90
2022-08-04T22:45:44.236Z,1.70
2022-08-04T22:47:53.520Z,2.10
2022-08-04T22:50:20.813Z,2.05
2022-08-04T22:52:32.112Z,2.35
2022-08-04T22:54:38.876Z,2.40
2022-08-04T22:56:45.513Z,2.08
2022-08-04T22:58:56.314Z,2.15
2022-08-04T23:01:04.469Z,2.22
2022-08-04T23:03:37.374Z,2.72
2022-08-04T23:05:40.663Z,2.67
2022-08-04T23:07:51.339Z,2.50
2022-08-04T23:09:58.486Z,2.33
2022-08-04T23:12:25.089Z,1.98
2022-08-04T23:14:31.914Z,2.33
2022-08-04T23:16:42.052Z,2.30
2022-08-04T23:18:48.394Z,3.22
2022-08-04T23:20:56.029Z,2.88
2022-08-04T23:23:12.276Z,2.53
2022-08-04T23:25:33.099Z,2.40
2022-08-04T23:27:52.299Z,2.15
2022-08-04T23:29:59.133Z,2.05
2022-08-04T23:32:03.920Z,2.40
2022-08-04T23:34:12.186Z,2.33
2022-08-04T23:36:17.880Z,2.42
2022-08-04T23:38:31.845Z,2.08
2022-08-04T23:40:50.016Z,2.30
2022-08-04T23:42:56.855Z,3.03
2022-08-04T23:45:01.684Z,2.70
2022-08-04T23:47:08.918Z,2.65
2022-08-04T23:49:16.761Z,2.40
2022-08-04T23:51:21.690Z,2.40
2022-08-04T23:53:28.120Z,2.67
2022-08-04T23:55:33.929Z,4.75
2022-08-04T23:58:06.243Z,3.58
